Eppley Airfield
KOMA : now visible

Airfield :











YOU CAN JOIN US ON...

 
LOGIN :

Register | Disclaimer

   EN    FR    IT 

 









Legend :    VFR   Marginal VFR   IFR   Intensive IFR   Very Intensive IFR
Visi :
Ceiling :
>= 8 km
>= 3000ft
5 to 8 km
1000 to 3000 ft
1500m to 5 km
500 to 1000 ft
800 to 1500m
200 to 500 ft
< 800m
< 200 ft
Symbols :   Thunderstorms  Fog  Heavy snow  Heavy precipitations  Wind > 20 kt






- Airport Elevation : 984 ft
- IATA code : OMA


KOMA - Eppley

CURRENT METAR :
  • 230152Z 10004KT 10SM FEW045 FEW250 25/19 A3000 RMK AO2 SLP152 T02500189

EXPIRED METARs :
  • 230052Z 10006KT 10SM FEW047 SCT250 27/18 A3000 RMK AO2 SLP150 T02720183
  • 222352Z 11005KT 10SM FEW047 SCT250 28/17 A2999 RMK AO2 SLP148 T02780172 10289 20250 56012
  • 222252Z 07004KT 10SM FEW047 SCT250 28/18 A2999 RMK AO2 SLP148 T02830178
  • 222152Z 03003KT 10SM FEW045TCU SCT100 BKN250 29/18 A3001 RMK AO2 SLP155 TCU SW-NW T02890178

TAF KOMA
Valid from the 23 at 00:00 until the 24 at 00:00 UTC


222325Z 2300/2324 17003KT P6SM FEW040 SCT200
FM231500 24005KT P6SM FEW045
KZMP FIR / North America



MET'MAP, your aeronautical weather chart ! - Copyright ORBIFLY December 2007 - Disclaimer

ORBIFLY MET'MAP TEAM :

Programming & Development : Alexandra Zaïnal
Original concept : Baudouin d'Aumeries
Technical & hardware support : Manuel Goepfert
Assistance : Marc-Olivier Méhu




SOURCES & CREDITS :

   NOAA       Earth
Advisory